createdAt,value
2018-12-17T00:00:10.272Z,7.9
2018-12-17T00:01:11.786Z,7.8
2018-12-17T00:02:13.152Z,7.8
2018-12-17T00:03:14.672Z,7.8
2018-12-17T00:04:16.192Z,7.8
2018-12-17T00:05:17.559Z,7.8
2018-12-17T00:06:19.082Z,7.8
2018-12-17T00:07:20.449Z,7.8
2018-12-17T00:08:21.829Z,7.8
2018-12-17T00:09:23.437Z,7.8
2018-12-17T00:10:24.953Z,7.8
2018-12-17T00:11:26.183Z,7.8
2018-12-17T00:12:27.560Z,7.8
2018-12-17T00:13:29.100Z,7.8
2018-12-17T00:14:30.461Z,7.9
2018-12-17T00:15:32.060Z,7.8
2018-12-17T00:16:33.423Z,7.8
2018-12-17T00:17:34.949Z,7.8
2018-12-17T00:18:36.490Z,7.8
2018-12-17T00:19:37.860Z,7.8
2018-12-17T00:20:39.075Z,7.8
2018-12-17T00:21:40.494Z,7.8
2018-12-17T00:22:42.021Z,7.9
2018-12-17T00:23:43.557Z,7.8
2018-12-17T00:24:45.128Z,7.9
2018-12-17T00:25:46.493Z,7.8
2018-12-17T00:26:47.862Z,7.9
2018-12-17T00:27:49.295Z,7.9
2018-12-17T00:28:50.843Z,7.8
2018-12-17T00:29:52.355Z,7.8
2018-12-17T00:30:53.718Z,7.8
2018-12-17T00:31:54.954Z,7.8
2018-12-17T00:32:56.510Z,7.8
2018-12-17T00:33:57.897Z,7.8
2018-12-17T00:34:59.267Z,7.8
2018-12-17T00:36:00.812Z,7.8
2018-12-17T00:37:02.163Z,7.8
2018-12-17T00:38:03.693Z,7.8
2018-12-17T00:39:05.243Z,7.8
2018-12-17T00:40:06.781Z,7.8
2018-12-17T00:41:08.392Z,7.8
2018-12-17T00:42:09.609Z,7.8
2018-12-17T00:43:11.147Z,7.8
2018-12-17T00:44:12.552Z,7.8
2018-12-17T00:45:13.773Z,7.8
2018-12-17T00:46:15.310Z,7.7
2018-12-17T00:47:16.853Z,7.7
2018-12-17T00:48:18.247Z,7.7
2018-12-17T00:49:19.615Z,7.7
2018-12-17T00:50:20.986Z,7.7
2018-12-17T00:51:22.513Z,7.7
2018-12-17T00:52:24.063Z,7.7
2018-12-17T00:53:25.585Z,7.7
2018-12-17T00:54:27.108Z,7.7
2018-12-17T00:55:28.169Z,7.7
2018-12-17T00:56:29.683Z,7.7
2018-12-17T00:57:31.235Z,7.7
2018-12-17T00:58:32.620Z,7.7
2018-12-17T00:59:33.993Z,7.7
2018-12-17T01:00:35.541Z,7.7
2018-12-17T01:01:37.080Z,7.7
2018-12-17T01:02:38.606Z,7.7
2018-12-17T01:03:39.994Z,7.7
2018-12-17T01:04:41.364Z,7.8
2018-12-17T01:05:42.591Z,7.7
2018-12-17T01:06:43.981Z,7.8
2018-12-17T01:07:45.364Z,7.8
2018-12-17T01:08:46.445Z,7.8
2018-12-17T01:09:47.971Z,7.8
2018-12-17T01:10:49.334Z,7.8
2018-12-17T01:11:50.883Z,7.8
2018-12-17T01:12:52.406Z,7.8
2018-12-17T01:13:53.625Z,7.8
2018-12-17T01:14:55.184Z,7.8
2018-12-17T01:15:56.708Z,7.8
2018-12-17T01:16:58.249Z,7.9
2018-12-17T01:17:59.787Z,7.9
2018-12-17T01:19:01.356Z,7.9
2018-12-17T01:20:02.922Z,7.9
2018-12-17T01:21:04.313Z,7.9
2018-12-17T01:22:05.848Z,7.9
2018-12-17T01:23:07.383Z,7.9
2018-12-17T01:24:08.769Z,7.9
2018-12-17T01:25:09.982Z,7.8
2018-12-17T01:26:11.508Z,7.8
2018-12-17T01:27:13.043Z,7.8
2018-12-17T01:28:14.398Z,7.8
2018-12-17T01:29:15.907Z,7.8
2018-12-17T01:30:17.358Z,7.8
2018-12-17T01:31:18.730Z,7.8
2018-12-17T01:32:20.282Z,7.8
2018-12-17T01:33:21.681Z,7.8
2018-12-17T01:34:23.206Z,7.8
2018-12-17T01:35:24.584Z,7.8
2018-12-17T01:36:26.107Z,7.7
2018-12-17T01:37:27.319Z,7.7
2018-12-17T01:38:28.843Z,7.7
2018-12-17T01:39:30.058Z,7.7
2018-12-17T01:40:31.583Z,7.7
2018-12-17T01:41:33.126Z,7.7
2018-12-17T01:42:34.654Z,7.7
2018-12-17T01:43:36.199Z,7.7
2018-12-17T01:44:37.733Z,7.7
2018-12-17T01:45:39.114Z,7.7
2018-12-17T01:46:40.636Z,7.7
2018-12-17T01:47:42.155Z,7.7
2018-12-17T01:48:43.537Z,7.7
2018-12-17T01:49:45.083Z,7.7
2018-12-17T01:50:46.486Z,7.7
2018-12-17T01:51:47.714Z,7.7
2018-12-17T01:52:49.109Z,7.7
2018-12-17T01:53:50.709Z,7.7
2018-12-17T01:54:51.927Z,7.7
2018-12-17T01:55:53.450Z,7.8
2018-12-17T01:56:54.834Z,7.8
2018-12-17T01:57:56.351Z,7.8
2018-12-17T01:58:57.865Z,7.9
2018-12-17T01:59:59.395Z,7.8
2018-12-17T02:01:00.613Z,7.9
2018-12-17T02:02:01.828Z,7.8
2018-12-17T02:03:03.361Z,7.8
2018-12-17T02:04:04.731Z,7.7
2018-12-17T02:05:06.170Z,7.7
2018-12-17T02:06:07.699Z,7.5
2018-12-17T02:07:09.065Z,7.4
2018-12-17T02:08:10.589Z,7.2
2018-12-17T02:09:12.123Z,7.1
2018-12-17T02:10:13.659Z,7.1
2018-12-17T02:11:15.021Z,7.1
2018-12-17T02:12:16.405Z,7.2
2018-12-17T02:13:17.923Z,7.1
2018-12-17T02:14:19.443Z,7.1
2018-12-17T02:15:20.989Z,7.2
2018-12-17T02:16:22.211Z,7.2
2018-12-17T02:17:23.734Z,7.1
2018-12-17T02:18:25.259Z,7.2
2018-12-17T02:19:26.784Z,7.1
2018-12-17T02:20:28.309Z,7.1
2018-12-17T02:21:29.679Z,7.1
2018-12-17T02:22:31.197Z,7.1
2018-12-17T02:23:32.393Z,7.1
2018-12-17T02:24:33.940Z,7.1
2018-12-17T02:25:35.316Z,7.1
2018-12-17T02:26:36.840Z,7.1
2018-12-17T02:27:38.371Z,7.1
2018-12-17T02:28:39.907Z,7.1
2018-12-17T02:29:41.285Z,7.1
2018-12-17T02:30:42.819Z,7.1
2018-12-17T02:31:44.216Z,7.1
2018-12-17T02:32:45.601Z,7.1
2018-12-17T02:33:47.133Z,7.1
2018-12-17T02:34:48.521Z,7.1
2018-12-17T02:35:50.070Z,7.1
2018-12-17T02:36:51.612Z,7.1
2018-12-17T02:37:52.991Z,7.1
2018-12-17T02:38:54.514Z,7.1
2018-12-17T02:39:56.058Z,7.1
2018-12-17T02:40:57.285Z,7.1
2018-12-17T02:41:58.826Z,7.1
2018-12-17T02:43:00.351Z,7.1
2018-12-17T02:44:01.723Z,7.1
2018-12-17T02:45:03.292Z,7.1
2018-12-17T02:46:04.813Z,7.2
2018-12-17T02:47:06.349Z,7.1
2018-12-17T02:48:07.756Z,7.2
2018-12-17T02:49:08.813Z,7.2
2018-12-17T02:50:10.202Z,7.2
2018-12-17T02:51:11.575Z,7.2
2018-12-17T02:52:13.156Z,7.2
2018-12-17T02:53:14.713Z,7.2
2018-12-17T02:54:16.259Z,7.2
2018-12-17T02:55:17.791Z,7.2
2018-12-17T02:56:19.206Z,7.2
2018-12-17T02:57:20.431Z,7.2
2018-12-17T02:58:21.976Z,7.2
2018-12-17T02:59:23.511Z,7.2
2018-12-17T03:00:25.031Z,7.2
2018-12-17T03:01:26.467Z,7.2
2018-12-17T03:02:27.947Z,7.2
2018-12-17T03:03:29.312Z,7.2
2018-12-17T03:04:30.867Z,7.2
2018-12-17T03:05:32.382Z,7.2
2018-12-17T03:06:33.747Z,7.3
2018-12-17T03:07:35.125Z,7.3
2018-12-17T03:08:36.589Z,7.4
2018-12-17T03:09:38.117Z,7.4
2018-12-17T03:10:39.491Z,7.5
2018-12-17T03:11:41.033Z,7.5
2018-12-17T03:12:42.569Z,7.6
2018-12-17T03:13:44.143Z,7.6
2018-12-17T03:14:45.671Z,7.6
2018-12-17T03:15:47.061Z,7.7
2018-12-17T03:16:48.453Z,7.7
2018-12-17T03:17:49.830Z,7.7
2018-12-17T03:18:51.369Z,7.7
2018-12-17T03:19:52.911Z,7.8
2018-12-17T03:20:54.131Z,7.8
2018-12-17T03:21:55.512Z,7.8
2018-12-17T03:22:57.162Z,7.8
2018-12-17T03:23:58.677Z,7.9
2018-12-17T03:25:00.240Z,7.8
2018-12-17T03:26:01.615Z,7.8
2018-12-17T03:27:03.157Z,7.8
2018-12-17T03:28:04.551Z,7.8
2018-12-17T03:29:06.108Z,7.8
2018-12-17T03:30:07.600Z,7.8
2018-12-17T03:31:09.244Z,7.8
2018-12-17T03:32:10.849Z,7.8
2018-12-17T03:33:12.364Z,7.8
2018-12-17T03:34:13.753Z,7.8
2018-12-17T03:35:15.122Z,7.8
2018-12-17T03:36:16.652Z,7.8
2018-12-17T03:37:18.200Z,7.8
2018-12-17T03:38:19.432Z,7.8
2018-12-17T03:39:20.960Z,7.8
2018-12-17T03:40:22.183Z,7.8
2018-12-17T03:41:23.558Z,7.8
2018-12-17T03:42:25.117Z,7.8
2018-12-17T03:43:26.485Z,7.7
2018-12-17T03:44:28.008Z,7.7
2018-12-17T03:45:29.392Z,7.7
2018-12-17T03:46:30.628Z,7.7
2018-12-17T03:47:32.206Z,7.7
2018-12-17T03:48:33.739Z,7.6
2018-12-17T03:49:35.110Z,7.6
2018-12-17T03:50:36.672Z,7.6
2018-12-17T03:51:38.064Z,7.6
2018-12-17T03:52:39.580Z,7.6
2018-12-17T03:53:41.125Z,7.7
2018-12-17T03:54:42.496Z,7.7
2018-12-17T03:55:44.034Z,7.7
2018-12-17T03:56:45.573Z,7.8
2018-12-17T03:57:47.091Z,7.9
2018-12-17T03:58:48.658Z,7.9
2018-12-17T03:59:50.221Z,7.9
2018-12-17T04:00:51.766Z,7.9
2018-12-17T04:01:53.285Z,7.9
2018-12-17T04:02:54.674Z,7.9
2018-12-17T04:03:56.201Z,7.9
2018-12-17T04:04:57.436Z,7.9
2018-12-17T04:05:58.968Z,7.8
2018-12-17T04:07:00.200Z,7.8
2018-12-17T04:08:01.401Z,7.7
2018-12-17T04:09:02.618Z,7.7
2018-12-17T04:10:04.132Z,7.6
2018-12-17T04:11:05.535Z,7.5
2018-12-17T04:12:06.902Z,7.4
2018-12-17T04:13:08.272Z,7.3
2018-12-17T04:14:09.502Z,7.2
2018-12-17T04:15:10.873Z,7.2
2018-12-17T04:16:12.250Z,7.2
2018-12-17T04:17:13.462Z,7.2
2018-12-17T04:18:14.899Z,7.2
2018-12-17T04:19:16.428Z,7.2
2018-12-17T04:20:17.781Z,7.2
2018-12-17T04:21:19.023Z,7.2
2018-12-17T04:22:20.410Z,7.2
2018-12-17T04:23:21.623Z,7.2
2018-12-17T04:24:23.013Z,7.2
2018-12-17T04:25:24.541Z,7.2
2018-12-17T04:26:25.932Z,7.3
2018-12-17T04:27:27.282Z,7.3
2018-12-17T04:28:28.892Z,7.4
2018-12-17T04:29:30.120Z,7.4
2018-12-17T04:30:31.640Z,7.6
2018-12-17T04:31:32.872Z,7.7
2018-12-17T04:32:34.239Z,7.8
2018-12-17T04:33:35.639Z,7.8
2018-12-17T04:34:37.170Z,7.8
2018-12-17T04:35:38.691Z,7.8
2018-12-17T04:36:40.218Z,7.9
2018-12-17T04:37:41.744Z,7.9
2018-12-17T04:38:43.101Z,7.9
2018-12-17T04:39:44.362Z,7.9
2018-12-17T04:40:45.901Z,7.9
2018-12-17T04:41:47.432Z,7.9
2018-12-17T04:42:48.974Z,7.9
2018-12-17T04:43:50.488Z,7.8
2018-12-17T04:44:51.706Z,7.8
2018-12-17T04:45:53.079Z,7.8
2018-12-17T04:46:54.601Z,7.8
2018-12-17T04:47:55.976Z,7.8
2018-12-17T04:48:57.181Z,7.8
2018-12-17T04:49:58.711Z,7.8
2018-12-17T04:51:00.232Z,7.8
2018-12-17T04:52:01.746Z,7.8
2018-12-17T04:53:03.112Z,7.8
2018-12-17T04:54:04.014Z,7.8
2018-12-17T04:55:05.541Z,7.8
2018-12-17T04:56:07.097Z,7.8
2018-12-17T04:57:08.623Z,7.8
2018-12-17T04:58:09.992Z,7.8
2018-12-17T04:59:16.201Z,7.8
2018-12-17T05:00:17.624Z,7.8
2018-12-17T05:01:19.152Z,7.8
2018-12-17T05:02:20.698Z,7.8
2018-12-17T05:03:22.065Z,7.8
2018-12-17T05:04:23.454Z,7.8
2018-12-17T05:05:25.001Z,7.8
2018-12-17T05:06:26.520Z,7.8
2018-12-17T05:07:27.999Z,7.8
2018-12-17T05:08:29.505Z,7.8
2018-12-17T05:09:31.042Z,7.8
2018-12-17T05:10:32.495Z,7.8
2018-12-17T05:11:34.015Z,7.8
2018-12-17T05:12:35.546Z,7.8
2018-12-17T05:13:37.072Z,7.8
2018-12-17T05:14:38.212Z,7.8
2018-12-17T05:15:39.561Z,7.7
2018-12-17T05:16:41.112Z,7.7
2018-12-17T05:17:42.339Z,7.7
2018-12-17T05:18:43.882Z,7.7
2018-12-17T05:19:45.862Z,7.7
2018-12-17T05:20:47.241Z,7.7
2018-12-17T05:21:48.493Z,7.7
2018-12-17T05:22:50.050Z,7.7
2018-12-17T05:23:51.793Z,7.7
2018-12-17T05:24:53.344Z,7.7
2018-12-17T05:25:54.579Z,7.7
2018-12-17T05:26:55.945Z,7.7
2018-12-17T05:27:57.333Z,7.7
2018-12-17T05:28:58.733Z,7.7
2018-12-17T05:30:00.268Z,7.7
2018-12-17T05:31:01.806Z,7.7
2018-12-17T05:32:03.340Z,7.7
2018-12-17T05:33:04.724Z,7.7
2018-12-17T05:34:06.104Z,7.7
2018-12-17T05:35:07.485Z,7.6
2018-12-17T05:36:08.871Z,7.7
2018-12-17T05:37:10.254Z,7.7
2018-12-17T05:38:13.483Z,7.7
2018-12-17T05:39:15.024Z,7.7
2018-12-17T05:40:16.405Z,7.7
2018-12-17T05:41:17.785Z,7.8
2018-12-17T05:42:19.205Z,7.8
2018-12-17T05:43:20.278Z,7.8
2018-12-17T05:44:21.892Z,7.8
2018-12-17T05:45:23.451Z,7.8
2018-12-17T05:46:24.842Z,7.8
2018-12-17T05:47:26.071Z,7.8
2018-12-17T05:48:27.303Z,7.8
2018-12-17T05:49:28.826Z,7.7
2018-12-17T05:50:30.208Z,7.6
2018-12-17T05:51:31.766Z,7.5
2018-12-17T05:52:33.303Z,7.4
2018-12-17T05:53:34.715Z,7.4
2018-12-17T05:54:36.264Z,7.3
2018-12-17T05:55:37.639Z,7.2
2018-12-17T05:56:39.190Z,7.2
2018-12-17T05:57:40.559Z,7.2
2018-12-17T05:58:42.139Z,7.2
2018-12-17T05:59:43.679Z,7.2
2018-12-17T06:00:45.692Z,7.2
2018-12-17T06:01:47.200Z,7.2
2018-12-17T06:02:48.722Z,7.2
2018-12-17T06:03:50.152Z,7.2
2018-12-17T06:04:51.390Z,7.2
2018-12-17T06:05:53.040Z,7.2
2018-12-17T06:06:54.422Z,7.2
2018-12-17T06:07:55.827Z,7.3
2018-12-17T06:08:57.241Z,7.3
2018-12-17T06:09:58.800Z,7.4
2018-12-17T06:11:00.329Z,7.4
2018-12-17T06:12:01.708Z,7.5
2018-12-17T06:13:03.094Z,7.5
2018-12-17T06:14:04.179Z,7.6
2018-12-17T06:15:05.615Z,7.6
2018-12-17T06:16:07.162Z,7.7
2018-12-17T06:17:08.697Z,7.7
2018-12-17T06:18:10.783Z,7.7
2018-12-17T06:19:12.400Z,7.7
2018-12-17T06:20:13.836Z,7.7
2018-12-17T06:21:15.236Z,7.7
2018-12-17T06:22:16.487Z,7.7
2018-12-17T06:23:17.885Z,7.7
2018-12-17T06:24:19.136Z,7.7
2018-12-17T06:25:20.712Z,7.8
2018-12-17T06:26:22.267Z,7.8
2018-12-17T06:27:23.838Z,7.8
2018-12-17T06:28:25.222Z,7.8
2018-12-17T06:29:26.610Z,7.8
2018-12-17T06:30:28.027Z,7.8
2018-12-17T06:31:29.424Z,7.8
2018-12-17T06:32:30.800Z,7.8
2018-12-17T06:33:32.343Z,7.8
2018-12-17T06:34:33.903Z,7.8
2018-12-17T06:35:35.301Z,7.8
2018-12-17T06:36:36.857Z,7.8
2018-12-17T06:37:38.225Z,7.8
2018-12-17T06:38:39.596Z,7.8
2018-12-17T06:39:40.992Z,7.8
2018-12-17T06:40:42.380Z,7.8
2018-12-17T06:41:43.940Z,7.8
2018-12-17T06:42:45.499Z,7.9
2018-12-17T06:43:47.063Z,7.9
2018-12-17T06:44:48.628Z,7.8
2018-12-17T06:45:50.169Z,7.8
2018-12-17T06:46:51.386Z,7.8
2018-12-17T06:47:52.912Z,7.2
2018-12-17T06:48:54.272Z,7.2
2018-12-17T06:49:55.817Z,7.2
2018-12-17T06:50:57.478Z,7.2
2018-12-17T06:51:58.893Z,7.2
2018-12-17T06:53:00.439Z,7.3
2018-12-17T06:54:01.882Z,7.3
2018-12-17T06:55:03.134Z,7.3
2018-12-17T06:56:04.684Z,7.3
2018-12-17T06:57:06.272Z,7.3
2018-12-17T06:58:07.822Z,7.3
2018-12-17T06:59:09.211Z,7.3
2018-12-17T07:00:10.744Z,7.3
2018-12-17T07:01:12.130Z,7.3
2018-12-17T07:02:13.528Z,7.3
2018-12-17T07:03:14.903Z,7.3
2018-12-17T07:04:16.452Z,7.3
2018-12-17T07:05:17.824Z,7.4
2018-12-17T07:06:19.380Z,7.4
2018-12-17T07:07:20.927Z,7.4
2018-12-17T07:08:22.491Z,7.4
2018-12-17T07:09:23.875Z,7.5
2018-12-17T07:10:25.412Z,7.5
2018-12-17T07:11:26.962Z,7.5
2018-12-17T07:12:28.214Z,7.5
2018-12-17T07:13:29.619Z,7.5
2018-12-17T07:14:38.039Z,7.5
2018-12-17T07:15:39.594Z,7.5
2018-12-17T07:16:40.654Z,7.5
2018-12-17T07:17:42.191Z,7.5
2018-12-17T07:18:43.745Z,7.6
2018-12-17T07:19:45.134Z,7.6
2018-12-17T07:20:46.691Z,7.6
2018-12-17T07:21:48.236Z,7.6
2018-12-17T07:22:49.622Z,7.6
2018-12-17T07:23:51.169Z,7.5
2018-12-17T07:24:52.230Z,7.4
2018-12-17T07:25:53.745Z,7.3
2018-12-17T07:26:55.401Z,7.3
2018-12-17T07:27:56.847Z,7.2
2018-12-17T07:28:58.235Z,7.2
2018-12-17T07:29:59.791Z,7.1
2018-12-17T07:31:01.171Z,7.2
2018-12-17T07:32:02.380Z,7.1
2018-12-17T07:33:03.924Z,7.2
2018-12-17T07:34:05.291Z,7.2
2018-12-17T07:35:06.828Z,7.2
2018-12-17T07:36:08.202Z,7.2
2018-12-17T07:37:09.721Z,7.2
2018-12-17T07:38:11.245Z,7.2
2018-12-17T07:39:12.641Z,7.2
2018-12-17T07:40:14.175Z,7.2
2018-12-17T07:41:15.728Z,7.2
2018-12-17T07:42:17.109Z,7.2
2018-12-17T07:43:18.639Z,7.2
2018-12-17T07:44:19.999Z,7.2
2018-12-17T07:45:21.546Z,7.2
2018-12-17T07:46:23.072Z,7.2
2018-12-17T07:47:24.441Z,7.2
2018-12-17T07:48:25.645Z,7.3
2018-12-17T07:49:27.201Z,7.3
2018-12-17T07:50:28.736Z,7.4
2018-12-17T07:51:30.170Z,7.5
2018-12-17T07:52:31.697Z,7.5
2018-12-17T07:53:33.229Z,7.6
2018-12-17T07:54:34.763Z,7.7
2018-12-17T07:55:35.988Z,7.7
2018-12-17T07:56:37.367Z,7.8
2018-12-17T07:57:38.899Z,7.8
2018-12-17T07:58:40.535Z,7.8
2018-12-17T07:59:41.917Z,7.8
2018-12-17T08:00:43.553Z,7.8
2018-12-17T08:01:45.150Z,7.8
2018-12-17T08:02:46.693Z,7.9
2018-12-17T08:03:48.225Z,7.9
2018-12-17T08:04:49.462Z,7.9
2018-12-17T08:05:50.863Z,7.8
2018-12-17T08:06:52.087Z,7.8
2018-12-17T08:07:53.467Z,7.8
2018-12-17T08:08:54.999Z,7.8
2018-12-17T08:09:56.367Z,7.8
2018-12-17T08:10:57.741Z,7.8
2018-12-17T08:11:59.151Z,7.8
2018-12-17T08:13:00.762Z,7.8
2018-12-17T08:14:02.166Z,7.8
2018-12-17T08:15:03.704Z,7.8
2018-12-17T08:16:05.257Z,7.8
2018-12-17T08:17:06.802Z,7.8
2018-12-17T08:18:08.195Z,7.8
2018-12-17T08:19:09.736Z,7.8
2018-12-17T08:20:11.278Z,7.8
2018-12-17T08:21:12.882Z,7.8
2018-12-17T08:22:14.107Z,7.7
2018-12-17T08:23:15.642Z,7.7
2018-12-17T08:24:17.175Z,7.7
2018-12-17T08:25:18.788Z,7.7
2018-12-17T08:26:20.179Z,7.7
2018-12-17T08:27:21.795Z,7.7
2018-12-17T08:28:23.324Z,7.7
2018-12-17T08:29:24.533Z,7.7
2018-12-17T08:30:26.059Z,7.7
2018-12-17T08:31:27.591Z,7.7
2018-12-17T08:32:28.989Z,7.7
2018-12-17T08:33:30.359Z,7.7
2018-12-17T08:34:31.887Z,7.6
2018-12-17T08:35:33.429Z,7.6
2018-12-17T08:36:34.965Z,7.6
2018-12-17T08:37:36.176Z,7.6
2018-12-17T08:38:37.566Z,7.6
2018-12-17T08:39:39.109Z,7.6
2018-12-17T08:40:40.510Z,7.6
2018-12-17T08:41:42.023Z,7.5
2018-12-17T08:42:43.573Z,7.5
2018-12-17T08:43:45.117Z,7.5
2018-12-17T08:44:46.652Z,7.5
2018-12-17T08:45:48.201Z,7.5
2018-12-17T08:46:49.729Z,7.5
2018-12-17T08:47:51.252Z,7.5
2018-12-17T08:48:52.627Z,7.5
2018-12-17T08:49:54.012Z,7.5
2018-12-17T08:50:55.535Z,7.5
2018-12-17T08:51:57.091Z,7.5
2018-12-17T08:52:58.601Z,7.4
2018-12-17T08:54:00.000Z,7.4
2018-12-17T08:55:01.220Z,7.3
2018-12-17T08:56:02.592Z,7.2
2018-12-17T08:57:03.989Z,7.2
2018-12-17T08:58:05.391Z,7.2
2018-12-17T08:59:06.920Z,7.2
2018-12-17T09:00:12.319Z,7.2
2018-12-17T09:01:13.864Z,7.2
2018-12-17T09:02:15.103Z,7.2
2018-12-17T09:03:16.495Z,7.2
2018-12-17T09:04:17.878Z,7.2
2018-12-17T09:05:19.097Z,7.2
2018-12-17T09:06:20.465Z,7.2
2018-12-17T09:07:21.996Z,7.2
2018-12-17T09:08:23.386Z,7.2
2018-12-17T09:09:24.920Z,7.2
2018-12-17T09:10:26.296Z,7.2
2018-12-17T09:11:27.829Z,7.2
2018-12-17T09:12:29.382Z,7.2
2018-12-17T09:13:30.919Z,7.2
2018-12-17T09:14:32.301Z,7.2
2018-12-17T09:15:33.682Z,7.2
2018-12-17T09:16:35.216Z,7.2
2018-12-17T09:17:36.734Z,7.3
2018-12-17T09:18:38.134Z,7.3
2018-12-17T09:19:39.533Z,7.4
2018-12-17T09:20:41.061Z,7.5
2018-12-17T09:21:42.584Z,7.6
2018-12-17T09:22:43.952Z,7.7
2018-12-17T09:23:45.507Z,7.8
2018-12-17T09:24:47.522Z,7.8
2018-12-17T09:25:48.742Z,7.9
2018-12-17T09:26:50.146Z,7.9
2018-12-17T09:27:51.522Z,7.9
2018-12-17T09:28:53.077Z,7.9
2018-12-17T09:29:54.460Z,7.9
2018-12-17T09:30:56.002Z,7.8
2018-12-17T09:31:57.382Z,7.9
2018-12-17T09:32:58.736Z,7.8
2018-12-17T09:34:00.196Z,7.9
2018-12-17T09:35:01.759Z,7.9
2018-12-17T09:36:03.312Z,7.9
2018-12-17T09:37:04.854Z,7.8
2018-12-17T09:38:05.932Z,7.8
2018-12-17T09:39:07.493Z,7.8
2018-12-17T09:40:08.876Z,7.8
2018-12-17T09:41:10.413Z,7.8
2018-12-17T09:42:11.774Z,7.8
2018-12-17T09:43:13.142Z,7.8
2018-12-17T09:44:14.515Z,7.8
2018-12-17T09:45:15.910Z,7.8
2018-12-17T09:46:17.302Z,7.8
2018-12-17T09:47:18.841Z,7.8
2018-12-17T09:48:20.391Z,7.8
2018-12-17T09:49:21.767Z,7.7
2018-12-17T09:50:23.159Z,7.7
2018-12-17T09:51:24.556Z,7.7
2018-12-17T09:52:26.090Z,7.7
2018-12-17T09:53:27.622Z,7.6
2018-12-17T09:54:28.995Z,7.6
2018-12-17T09:55:30.376Z,7.6
2018-12-17T09:56:31.766Z,7.6
2018-12-17T09:57:33.303Z,7.6
2018-12-17T09:58:34.843Z,7.6
2018-12-17T09:59:36.373Z,7.6
2018-12-17T10:00:37.914Z,7.6
2018-12-17T10:01:39.156Z,7.6
2018-12-17T10:02:40.707Z,7.6
2018-12-17T10:03:43.417Z,7.6
2018-12-17T10:04:44.802Z,7.6
2018-12-17T10:05:46.328Z,7.6
2018-12-17T10:06:47.729Z,7.6
2018-12-17T10:07:49.267Z,7.6
2018-12-17T10:08:50.660Z,7.6
2018-12-17T10:09:52.046Z,7.6
2018-12-17T10:10:53.439Z,7.6
2018-12-17T10:11:54.981Z,7.6
2018-12-17T10:12:56.364Z,7.6
2018-12-17T10:13:57.922Z,7.6
2018-12-17T10:14:59.298Z,7.5
2018-12-17T10:16:00.833Z,7.5
2018-12-17T10:17:02.065Z,7.5
2018-12-17T10:18:03.615Z,7.5
2018-12-17T10:19:04.868Z,7.6
2018-12-17T10:20:06.414Z,7.6
2018-12-17T10:21:07.828Z,7.6
2018-12-17T10:22:09.742Z,7.6
2018-12-17T10:23:11.109Z,7.7
2018-12-17T10:24:12.524Z,7.7
2018-12-17T10:25:14.051Z,7.8
2018-12-17T10:26:15.430Z,7.8
2018-12-17T10:27:17.799Z,7.8
2018-12-17T10:28:19.018Z,7.8
2018-12-17T10:29:20.396Z,7.8
2018-12-17T10:30:21.816Z,7.8
2018-12-17T10:31:23.348Z,7.7
2018-12-17T10:32:24.752Z,7.6
2018-12-17T10:33:26.144Z,7.5
2018-12-17T10:34:27.668Z,7.3
2018-12-17T10:35:29.054Z,7.2
2018-12-17T10:36:30.291Z,7.2
2018-12-17T10:37:31.660Z,7.1
2018-12-17T10:38:33.200Z,7.2
2018-12-17T10:39:34.592Z,7.1
2018-12-17T10:40:36.134Z,7.1
2018-12-17T10:41:37.529Z,7.2
2018-12-17T10:42:38.921Z,7.2
2018-12-17T10:43:40.453Z,7.1
2018-12-17T10:44:41.824Z,7.1
2018-12-17T10:45:43.370Z,7.2
2018-12-17T10:46:44.921Z,7.1
2018-12-17T10:47:46.468Z,7.2
2018-12-17T10:48:47.860Z,7.2
2018-12-17T10:49:49.384Z,7.2
2018-12-17T10:50:50.912Z,7.2
2018-12-17T10:51:52.451Z,7.2
2018-12-17T10:52:54.028Z,7.2
2018-12-17T10:53:55.561Z,7.2
2018-12-17T10:54:56.929Z,7.3
2018-12-17T10:55:58.457Z,7.3
2018-12-17T10:56:59.911Z,7.4
2018-12-17T10:58:01.230Z,7.5
2018-12-17T10:59:02.762Z,7.6
2018-12-17T11:00:04.132Z,7.7
2018-12-17T11:01:05.520Z,7.8
2018-12-17T11:02:07.067Z,7.8
2018-12-17T11:03:08.608Z,7.9
2018-12-17T11:04:10.132Z,7.9
2018-12-17T11:05:11.662Z,7.9
2018-12-17T11:06:13.032Z,7.9
2018-12-17T11:07:14.585Z,7.9
2018-12-17T11:08:15.982Z,7.9
2018-12-17T11:09:17.547Z,7.9
2018-12-17T11:10:19.089Z,7.9
2018-12-17T11:11:20.629Z,7.9
2018-12-17T11:12:22.153Z,7.9
2018-12-17T11:13:23.386Z,7.9
2018-12-17T11:14:24.920Z,7.9
2018-12-17T11:15:26.180Z,7.9
2018-12-17T11:16:27.550Z,7.9
2018-12-17T11:17:29.079Z,7.9
2018-12-17T11:18:30.313Z,7.1
2018-12-17T11:19:31.848Z,7.2
2018-12-17T11:20:33.403Z,7.3
2018-12-17T11:21:35.002Z,7.3
2018-12-17T11:22:36.566Z,7.4
2018-12-17T11:23:38.122Z,7.4
2018-12-17T11:24:39.526Z,7.4
2018-12-17T11:25:40.758Z,7.4
2018-12-17T11:26:42.122Z,7.4
2018-12-17T11:27:43.529Z,7.4
2018-12-17T11:28:44.779Z,7.4
2018-12-17T11:29:46.003Z,7.4
2018-12-17T11:30:48.203Z,7.5
2018-12-17T11:31:49.737Z,7.5
2018-12-17T11:32:51.290Z,7.5
2018-12-17T11:33:52.815Z,7.6
2018-12-17T11:34:54.026Z,7.6
2018-12-17T11:35:55.556Z,7.7
2018-12-17T11:36:56.943Z,7.7
2018-12-17T11:37:58.322Z,7.8
2018-12-17T11:38:59.712Z,7.8
2018-12-17T11:40:01.108Z,7.8
2018-12-17T11:41:02.475Z,7.8
2018-12-17T11:42:04.013Z,7.8
2018-12-17T11:43:05.382Z,7.8
2018-12-17T11:44:06.630Z,7.8
2018-12-17T11:45:08.222Z,7.8
2018-12-17T11:46:09.588Z,7.8
2018-12-17T11:47:11.125Z,7.9
2018-12-17T11:48:12.345Z,7.9
2018-12-17T11:49:13.865Z,7.2
2018-12-17T11:50:15.433Z,7.2
2018-12-17T11:51:16.966Z,7.3
2018-12-17T11:52:18.369Z,7.3
2018-12-17T11:53:19.765Z,7.3
2018-12-17T11:54:21.300Z,7.3
2018-12-17T11:55:22.688Z,7.3
2018-12-17T11:56:24.073Z,7.3
2018-12-17T11:57:25.290Z,7.2
2018-12-17T11:58:26.533Z,7.2
2018-12-17T11:59:27.781Z,7.2
2018-12-17T12:00:29.314Z,7.3
2018-12-17T12:01:30.582Z,7.3
2018-12-17T12:02:32.113Z,7.3
2018-12-17T12:03:33.653Z,7.3
2018-12-17T12:04:35.202Z,7.3
2018-12-17T12:05:36.828Z,7.3
2018-12-17T12:06:38.378Z,7.3
2018-12-17T12:07:39.761Z,7.3
2018-12-17T12:08:41.324Z,7.3
2018-12-17T12:09:42.882Z,7.3
2018-12-17T12:10:44.134Z,7.3
2018-12-17T12:11:45.673Z,7.4
2018-12-17T12:12:47.066Z,7.3
2018-12-17T12:13:48.592Z,7.3
2018-12-17T12:14:50.122Z,7.3
2018-12-17T12:15:51.525Z,7.3
2018-12-17T12:16:52.762Z,7.2
2018-12-17T12:17:54.304Z,7.2
2018-12-17T12:18:55.727Z,7.2
2018-12-17T12:19:57.283Z,7.2
2018-12-17T12:20:58.861Z,7.2
2018-12-17T12:22:00.418Z,7.2
2018-12-17T12:23:01.813Z,7.2
2018-12-17T12:24:03.218Z,7.1
2018-12-17T12:25:04.617Z,7.2
2018-12-17T12:26:05.986Z,7.2
2018-12-17T12:27:08.139Z,7.2
2018-12-17T12:28:09.697Z,7.1
2018-12-17T12:29:11.052Z,7.1
2018-12-17T12:30:12.266Z,7.1
2018-12-17T12:31:13.646Z,7.2
2018-12-17T12:32:15.178Z,7.1
2018-12-17T12:33:16.261Z,7.2
2018-12-17T12:34:17.649Z,7.2
2018-12-17T12:35:19.060Z,7.2
2018-12-17T12:36:20.455Z,7.2
2018-12-17T12:37:21.829Z,7.2
2018-12-17T12:38:23.370Z,7.2
2018-12-17T12:39:24.596Z,7.2
2018-12-17T12:40:25.961Z,7.3
2018-12-17T12:41:27.483Z,7.3
2018-12-17T12:42:28.866Z,7.4
2018-12-17T12:43:30.389Z,7.5
2018-12-17T12:44:31.921Z,7.5
2018-12-17T12:45:33.273Z,7.6
2018-12-17T12:46:34.649Z,7.7
2018-12-17T12:47:35.891Z,7.7
2018-12-17T12:48:37.267Z,7.8
2018-12-17T12:49:38.810Z,7.8
2018-12-17T12:50:40.361Z,7.8
2018-12-17T12:51:41.590Z,7.8
2018-12-17T12:52:42.817Z,7.9
2018-12-17T12:53:44.204Z,7.9
2018-12-17T12:54:45.754Z,7.9
2018-12-17T12:55:47.109Z,7.9
2018-12-17T12:56:48.481Z,7.9
2018-12-17T12:57:49.853Z,7.9
2018-12-17T12:58:51.395Z,7.9
2018-12-17T12:59:52.946Z,7.9
2018-12-17T13:00:54.173Z,7.9
2018-12-17T13:01:55.752Z,7.8
2018-12-17T13:02:57.304Z,7.9
2018-12-17T13:03:58.837Z,7.9
2018-12-17T13:04:59.901Z,7.9
2018-12-17T13:06:01.472Z,7.9
2018-12-17T13:07:03.032Z,7.9
2018-12-17T13:08:04.571Z,7.9
2018-12-17T13:09:06.106Z,7.9
2018-12-17T13:10:07.503Z,7.9
2018-12-17T13:11:09.105Z,7.9
2018-12-17T13:12:10.639Z,7.9
2018-12-17T13:13:12.164Z,7.9
2018-12-17T13:14:13.715Z,7.9
2018-12-17T13:15:15.260Z,7.9
2018-12-17T13:16:16.815Z,7.9
2018-12-17T13:17:18.183Z,7.8
2018-12-17T13:18:19.724Z,7.8
2018-12-17T13:19:21.114Z,7.8
2018-12-17T13:20:22.663Z,7.8
2018-12-17T13:21:24.209Z,7.8
2018-12-17T13:22:25.593Z,7.8
2018-12-17T13:23:27.137Z,7.8
2018-12-17T13:24:28.214Z,7.8
2018-12-17T13:25:29.454Z,7.7
2018-12-17T13:26:30.848Z,7.7
2018-12-17T13:27:32.070Z,7.7
2018-12-17T13:28:33.143Z,7.7
2018-12-17T13:29:34.566Z,7.7
2018-12-17T13:30:35.975Z,7.7
2018-12-17T13:31:37.504Z,7.7
2018-12-17T13:32:39.075Z,7.7
2018-12-17T13:33:40.623Z,7.7
2018-12-17T13:34:42.174Z,7.7
2018-12-17T13:35:43.405Z,7.7
2018-12-17T13:36:44.954Z,7.7
2018-12-17T13:37:46.503Z,7.7
2018-12-17T13:38:47.876Z,7.8
2018-12-17T13:39:49.424Z,7.8
2018-12-17T13:40:50.810Z,7.8
2018-12-17T13:41:52.282Z,7.8
2018-12-17T13:42:53.342Z,7.8
2018-12-17T13:43:54.868Z,7.8
2018-12-17T13:44:56.426Z,7.8
2018-12-17T13:45:57.988Z,7.8
2018-12-17T13:46:59.546Z,7.8
2018-12-17T13:48:01.099Z,7.8
2018-12-17T13:49:02.353Z,7.8
2018-12-17T13:50:03.572Z,7.8
2018-12-17T13:51:05.118Z,7.8
2018-12-17T13:52:06.663Z,7.8
2018-12-17T13:53:07.893Z,7.7
2018-12-17T13:54:09.441Z,7.8
2018-12-17T13:55:10.962Z,7.7
2018-12-17T13:56:12.352Z,7.7
2018-12-17T13:57:13.737Z,7.7
2018-12-17T13:58:15.127Z,7.8
2018-12-17T13:59:16.527Z,7.8
2018-12-17T14:00:17.936Z,7.7
2018-12-17T14:01:23.379Z,7.7
2018-12-17T14:02:24.922Z,7.6
2018-12-17T14:03:26.480Z,7.5
2018-12-17T14:04:27.868Z,7.4
2018-12-17T14:05:29.410Z,7.3
2018-12-17T14:06:30.804Z,7.2